sensor_id;sensor_type;location;lat;lon;timestamp;pressure;altitude;pressure_sealevel;temperature;humidity
59315;BME280;46521;50.160;20.802;2022-10-31T00:09:55;100041.19;;;10.98;73.13
59315;BME280;46521;50.160;20.802;2022-10-31T00:19:57;100037.06;;;10.96;73.09
59315;BME280;46521;50.160;20.802;2022-10-31T00:29:58;100042.50;;;10.86;73.60
59315;BME280;46521;50.160;20.802;2022-10-31T00:39:59;100036.02;;;10.80;72.91
59315;BME280;46521;50.160;20.802;2022-10-31T00:50:01;100034.83;;;10.75;73.74
59315;BME280;46521;50.160;20.802;2022-10-31T01:00:03;100031.84;;;10.70;73.56
59315;BME280;46521;50.160;20.802;2022-10-31T01:10:06;100037.27;;;10.60;73.89
59315;BME280;46521;50.160;20.802;2022-10-31T01:20:09;100035.09;;;10.55;74.22
59315;BME280;46521;50.160;20.802;2022-10-31T01:30:12;100033.58;;;10.53;73.67
59315;BME280;46521;50.160;20.802;2022-10-31T01:40:13;100016.33;;;10.40;73.18
59315;BME280;46521;50.160;20.802;2022-10-31T01:50:36;100016.42;;;10.31;73.21
59315;BME280;46521;50.160;20.802;2022-10-31T02:00:42;100039.02;;;10.25;73.38
59315;BME280;46521;50.160;20.802;2022-10-31T02:10:44;100038.47;;;10.13;74.31
59315;BME280;46521;50.160;20.802;2022-10-31T02:41:32;100039.98;;;10.16;74.00
59315;BME280;46521;50.160;20.802;2022-10-31T02:51:34;100040.45;;;10.11;74.13
59315;BME280;46521;50.160;20.802;2022-10-31T03:32:27;100063.60;;;9.37;74.07
59315;BME280;46521;50.160;20.802;2022-10-31T03:42:32;100073.12;;;9.30;74.15
59315;BME280;46521;50.160;20.802;2022-10-31T03:52:53;100075.68;;;9.22;74.21
59315;BME280;46521;50.160;20.802;2022-10-31T04:03:19;100078.09;;;9.33;74.39
59315;BME280;46521;50.160;20.802;2022-10-31T04:13:28;100081.63;;;9.24;73.96
59315;BME280;46521;50.160;20.802;2022-10-31T04:23:31;100079.28;;;9.20;73.89
59315;BME280;46521;50.160;20.802;2022-10-31T04:33:33;100082.15;;;9.27;74.39
59315;BME280;46521;50.160;20.802;2022-10-31T04:43:34;100082.74;;;9.21;73.86
59315;BME280;46521;50.160;20.802;2022-10-31T04:53:35;100074.30;;;9.17;73.55
59315;BME280;46521;50.160;20.802;2022-10-31T05:03:37;100077.23;;;9.14;73.88
59315;BME280;46521;50.160;20.802;2022-10-31T05:13:40;100091.02;;;9.08;74.22
59315;BME280;46521;50.160;20.802;2022-10-31T05:23:41;100101.43;;;9.10;74.10
59315;BME280;46521;50.160;20.802;2022-10-31T05:33:42;100103.92;;;9.11;73.54
59315;BME280;46521;50.160;20.802;2022-10-31T05:43:45;100112.51;;;9.13;73.90
59315;BME280;46521;50.160;20.802;2022-10-31T05:53:46;100125.27;;;9.18;73.91
59315;BME280;46521;50.160;20.802;2022-10-31T06:03:48;100124.09;;;9.30;73.74
59315;BME280;46521;50.160;20.802;2022-10-31T06:13:49;100132.81;;;10.91;71.55
59315;BME280;46521;50.160;20.802;2022-10-31T06:23:51;100137.84;;;12.60;70.48
59315;BME280;46521;50.160;20.802;2022-10-31T06:33:52;100140.08;;;14.29;69.09
59315;BME280;46521;50.160;20.802;2022-10-31T06:43:53;100140.25;;;15.10;69.67
59315;BME280;46521;50.160;20.802;2022-10-31T06:53:55;100154.48;;;14.87;70.15
59315;BME280;46521;50.160;20.802;2022-10-31T07:03:56;100173.42;;;14.54;69.91
59315;BME280;46521;50.160;20.802;2022-10-31T07:13:57;100180.98;;;14.28;69.94
59315;BME280;46521;50.160;20.802;2022-10-31T07:23:59;100192.40;;;13.90;69.64
59315;BME280;46521;50.160;20.802;2022-10-31T07:34:00;100188.87;;;13.75;69.97
59315;BME280;46521;50.160;20.802;2022-10-31T07:44:01;100186.97;;;13.83;70.51
59315;BME280;46521;50.160;20.802;2022-10-31T07:54:03;100190.39;;;13.69;69.91
59315;BME280;46521;50.160;20.802;2022-10-31T08:04:04;100197.09;;;13.57;70.67
59315;BME280;46521;50.160;20.802;2022-10-31T08:14:06;100185.77;;;13.63;70.87
59315;BME280;46521;50.160;20.802;2022-10-31T08:24:07;100185.77;;;13.63;71.66
59315;BME280;46521;50.160;20.802;2022-10-31T08:34:08;100182.90;;;13.96;71.29
59315;BME280;46521;50.160;20.802;2022-10-31T08:44:10;100191.48;;;14.06;70.70
59315;BME280;46521;50.160;20.802;2022-10-31T08:54:11;100190.96;;;14.49;71.19
59315;BME280;46521;50.160;20.802;2022-10-31T09:04:12;100186.43;;;14.87;70.68
59315;BME280;46521;50.160;20.802;2022-10-31T09:14:14;100191.88;;;14.94;70.90
59315;BME280;46521;50.160;20.802;2022-10-31T09:24:15;100191.63;;;15.55;70.83
59315;BME280;46521;50.160;20.802;2022-10-31T09:34:16;100184.59;;;16.27;70.12
59315;BME280;46521;50.160;20.802;2022-10-31T09:44:31;100189.89;;;16.77;69.29
59315;BME280;46521;50.160;20.802;2022-10-31T09:54:40;100192.31;;;17.42;69.36
59315;BME280;46521;50.160;20.802;2022-10-31T10:04:54;100197.45;;;18.32;68.13
59315;BME280;46521;50.160;20.802;2022-10-31T10:25:39;100194.48;;;19.14;66.29
59315;BME280;46521;50.160;20.802;2022-10-31T10:35:48;100187.01;;;19.36;65.77
59315;BME280;46521;50.160;20.802;2022-10-31T11:07:12;100169.64;;;19.38;64.48
59315;BME280;46521;50.160;20.802;2022-10-31T11:17:22;100167.59;;;19.34;63.92
59315;BME280;46521;50.160;20.802;2022-10-31T11:27:26;100164.19;;;19.58;63.41
59315;BME280;46521;50.160;20.802;2022-10-31T11:37:32;100161.89;;;19.23;63.29
59315;BME280;46521;50.160;20.802;2022-10-31T11:47:42;100159.48;;;19.02;63.14
59315;BME280;46521;50.160;20.802;2022-10-31T11:57:51;100148.41;;;18.65;63.17
59315;BME280;46521;50.160;20.802;2022-10-31T12:07:53;100141.01;;;18.53;63.18
59315;BME280;46521;50.160;20.802;2022-10-31T12:28:44;100136.08;;;18.30;63.13
59315;BME280;46521;50.160;20.802;2022-10-31T12:49:17;100133.61;;;18.29;63.11
59315;BME280;46521;50.160;20.802;2022-10-31T12:59:51;100128.27;;;18.35;63.26
59315;BME280;46521;50.160;20.802;2022-10-31T13:20:55;100121.06;;;18.09;63.30
59315;BME280;46521;50.160;20.802;2022-10-31T13:30:50;100120.64;;;17.99;63.56
59315;BME280;46521;50.160;20.802;2022-10-31T13:41:00;100114.69;;;17.90;63.58
59315;BME280;46521;50.160;20.802;2022-10-31T13:51:06;100124.11;;;17.79;63.54
59315;BME280;46521;50.160;20.802;2022-10-31T14:01:19;100127.80;;;17.65;63.86
59315;BME280;46521;50.160;20.802;2022-10-31T14:11:27;100122.59;;;17.50;64.05
59315;BME280;46521;50.160;20.802;2022-10-31T14:21:35;100115.77;;;17.34;64.22
59315;BME280;46521;50.160;20.802;2022-10-31T14:31:41;100111.63;;;17.25;64.25
59315;BME280;46521;50.160;20.802;2022-10-31T14:42:02;100105.83;;;17.15;64.39
59315;BME280;46521;50.160;20.802;2022-10-31T14:52:07;100098.17;;;16.98;64.64
59315;BME280;46521;50.160;20.802;2022-10-31T15:02:21;100093.12;;;16.82;65.03
59315;BME280;46521;50.160;20.802;2022-10-31T15:12:27;100094.86;;;16.61;64.90
59315;BME280;46521;50.160;20.802;2022-10-31T15:22:30;100109.89;;;16.34;65.37
59315;BME280;46521;50.160;20.802;2022-10-31T15:32:32;100098.02;;;16.08;65.46
59315;BME280;46521;50.160;20.802;2022-10-31T15:42:41;100101.70;;;15.85;65.32
59315;BME280;46521;50.160;20.802;2022-10-31T15:52:44;100106.00;;;15.65;65.69
59315;BME280;46521;50.160;20.802;2022-10-31T16:02:47;100111.38;;;15.50;65.87
59315;BME280;46521;50.160;20.802;2022-10-31T16:12:48;100118.87;;;15.40;65.82
59315;BME280;46521;50.160;20.802;2022-10-31T16:22:51;100118.52;;;15.28;66.32
59315;BME280;46521;50.160;20.802;2022-10-31T16:32:56;100121.41;;;14.96;66.53
59315;BME280;46521;50.160;20.802;2022-10-31T16:42:59;100127.11;;;14.64;66.69
59315;BME280;46521;50.160;20.802;2022-10-31T16:53:01;100123.12;;;14.30;66.81
59315;BME280;46521;50.160;20.802;2022-10-31T17:03:03;100126.58;;;14.15;67.71
59315;BME280;46521;50.160;20.802;2022-10-31T17:13:08;100138.41;;;13.90;67.38
59315;BME280;46521;50.160;20.802;2022-10-31T17:23:13;100136.16;;;13.78;67.80
59315;BME280;46521;50.160;20.802;2022-10-31T17:33:15;100131.55;;;13.72;68.31
59315;BME280;46521;50.160;20.802;2022-10-31T17:43:17;100134.27;;;13.64;68.73
59315;BME280;46521;50.160;20.802;2022-10-31T17:53:19;100136.94;;;13.64;68.70
59315;BME280;46521;50.160;20.802;2022-10-31T18:03:20;100139.24;;;13.67;69.10
59315;BME280;46521;50.160;20.802;2022-10-31T18:13:22;100130.59;;;13.65;69.17
59315;BME280;46521;50.160;20.802;2022-10-31T18:23:23;100134.63;;;13.61;69.41
59315;BME280;46521;50.160;20.802;2022-10-31T18:33:24;100135.67;;;13.51;69.54
59315;BME280;46521;50.160;20.802;2022-10-31T18:43:26;100122.47;;;13.35;69.48
59315;BME280;46521;50.160;20.802;2022-10-31T18:53:27;100126.98;;;13.26;69.40
59315;BME280;46521;50.160;20.802;2022-10-31T19:03:29;100120.10;;;13.09;69.53
59315;BME280;46521;50.160;20.802;2022-10-31T19:13:32;100113.69;;;12.95;69.90
59315;BME280;46521;50.160;20.802;2022-10-31T19:23:34;100114.58;;;12.79;70.20
59315;BME280;46521;50.160;20.802;2022-10-31T19:33:36;100113.94;;;12.69;69.70
59315;BME280;46521;50.160;20.802;2022-10-31T19:43:38;100115.43;;;12.63;69.63
59315;BME280;46521;50.160;20.802;2022-10-31T19:53:41;100117.94;;;12.56;69.77
59315;BME280;46521;50.160;20.802;2022-10-31T20:03:44;100115.82;;;12.43;70.65
59315;BME280;46521;50.160;20.802;2022-10-31T20:13:45;100119.00;;;12.31;70.41
59315;BME280;46521;50.160;20.802;2022-10-31T20:23:47;100123.80;;;12.19;69.81
59315;BME280;46521;50.160;20.802;2022-10-31T20:33:49;100134.59;;;12.09;70.21
59315;BME280;46521;50.160;20.802;2022-10-31T20:43:50;100122.48;;;11.98;70.92
59315;BME280;46521;50.160;20.802;2022-10-31T20:53:54;100124.27;;;11.89;71.04
59315;BME280;46521;50.160;20.802;2022-10-31T21:03:56;100131.07;;;11.84;71.32
59315;BME280;46521;50.160;20.802;2022-10-31T21:13:58;100116.16;;;11.75;71.03
59315;BME280;46521;50.160;20.802;2022-10-31T21:24:03;100109.34;;;11.64;70.91
59315;BME280;46521;50.160;20.802;2022-10-31T21:34:05;100099.56;;;11.56;71.06
59315;BME280;46521;50.160;20.802;2022-10-31T21:44:06;100097.56;;;11.50;70.67
59315;BME280;46521;50.160;20.802;2022-10-31T21:54:11;100097.40;;;11.43;71.13
59315;BME280;46521;50.160;20.802;2022-10-31T22:04:28;100080.97;;;11.31;71.21
59315;BME280;46521;50.160;20.802;2022-10-31T22:14:29;100084.59;;;11.22;70.38
59315;BME280;46521;50.160;20.802;2022-10-31T22:24:30;100062.09;;;11.18;70.74
59315;BME280;46521;50.160;20.802;2022-10-31T22:34:32;100069.02;;;11.11;71.50
59315;BME280;46521;50.160;20.802;2022-10-31T22:44:33;100059.71;;;10.98;70.97
59315;BME280;46521;50.160;20.802;2022-10-31T22:54:34;100059.35;;;10.85;71.02
59315;BME280;46521;50.160;20.802;2022-10-31T23:04:36;100045.41;;;10.75;70.87
59315;BME280;46521;50.160;20.802;2022-10-31T23:14:37;100040.75;;;10.69;71.19
59315;BME280;46521;50.160;20.802;2022-10-31T23:24:43;100025.52;;;10.62;71.16
59315;BME280;46521;50.160;20.802;2022-10-31T23:34:46;100023.00;;;10.53;70.76
